Flight Track Log - Related Links

Times and Time Zones

All times are in EDT time to prevent confusion due to time zone crossing. See the N600TR flight status page for this flight to view local times or setup timezone preferences in your user account.

Time Position Orientation Groundspeed Altitude Reporting Facility
EDT Latitude Longitude Course Direction KTS MPH feet Rate Location/Type
Wed 06:25:23 PM 38.2167 -85.7333 191° South 163 188 2,100  Level Louisville TRACON
Wed 06:27:14 PM 38.2531 -85.8253 297° West 271 312 4,800 1,838 Climbing Indianapolis Center
Wed 06:28:00 PM 37.9443 -86.1281 238° Southwest  Level FlightAware Approximate
Wed 06:28:16 PM 38.1967 -85.8911 223° Southwest 275 316 7,400  Level Indianapolis Center
Wed 06:29:00 PM 37.8869 -86.2275 233° Southwest  Level FlightAware Approximate
Wed 06:29:18 PM 38.1264 -85.9756 223° Southwest 285 328 10,100  Level Indianapolis Center
Wed 06:30:00 PM 37.7931 -86.2517 191° South  Level FlightAware Approximate
Wed 06:30:20 PM 38.0647 -86.0631 228° Southwest 324 373 11,300  Level Indianapolis Center
Wed 06:31:22 PM 37.9667 -86.0897 192° South 354 407 13,800 2,129 Climbing Indianapolis Center
Wed 06:32:24 PM 37.8639 -86.1069 188° South 367 422 15,700 1,887 Climbing Indianapolis Center
Wed 06:33:26 PM 37.7581 -86.1217 186° South 377 434 17,700 1,645 Climbing Indianapolis Center
Wed 06:34:28 PM 37.6497 -86.1389 187° South 387 445 19,100 1,452 Climbing Indianapolis Center
Wed 06:35:30 PM 37.5367 -86.1783 195° South 403 464 20,700 1,548 Climbing Indianapolis Center
Wed 06:36:32 PM 37.4267 -86.2175 196° South 407 468 22,300 1,403 Climbing Indianapolis Center
Wed 06:37:34 PM 37.3222 -86.2778 205° Southwest 409 471 23,600 1,403 Climbing Indianapolis Center
Wed 06:38:36 PM 37.1975 -86.3467 204° Southwest 416 479 25,200 1,241 Climbing Indianapolis Center
Wed 06:39:30 PM 37.0931 -86.3806 195° South 417 480 26,000 947 Climbing Memphis Center
Wed 06:40:30 PM 37.0022 -86.4736 219° Southwest 411 473 27,000 500 Climbing Memphis Center
Wed 06:41:30 PM 36.9158 -86.5789 224° Southwest 431 496 27,000  Level Memphis Center
Wed 06:42:30 PM 36.8275 -86.6867 224° Southwest 448 516 27,000  Level Memphis Center
Wed 06:43:30 PM 36.7056 -86.7181 192° South 421 484 27,000  Level Memphis Center
Wed 06:44:30 PM 36.5764 -86.7189 180° South 448 516 27,000  Level Memphis Center
Wed 06:45:30 PM 36.4489 -86.7142 178° South 460 529 27,000  Level Memphis Center
Wed 06:46:30 PM 36.3367 -86.6547 157° South 465 535 27,000 -400 Level Memphis Center
Wed 06:47:30 PM 36.2139 -86.5883 156° South 470 541 26,200 -1,000 Descending Memphis Center
Wed 06:48:30 PM 36.0911 -86.5247 157° South 480 552 25,000 -600 Descending Memphis Center
Wed 06:49:30 PM 35.9594 -86.4539 156° South 480 552 25,000  Level Memphis Center
Wed 06:50:30 PM 35.8364 -86.3856 156° South 480 552 25,000  Level Memphis Center
Wed 06:52:04 PM 35.6642 -86.2906 156° South 493 567 25,000  Level Atlanta Center
Wed 06:53:04 PM 35.5592 -86.2139 149° Southeast 461 531 25,000 50 Level Atlanta Center
Wed 06:54:04 PM 35.4647 -86.1322 145° Southeast 409 471 25,100  Climbing Atlanta Center
Wed 06:55:04 PM 35.3606 -86.1194 174° South 355 409 25,000  Descending Atlanta Center
Wed 06:56:04 PM 35.2719 -86.0664 154° Southeast 355 409 25,100  Climbing Atlanta Center
Wed 06:57:04 PM 35.1875 -85.9881 143° Southeast 362 417 25,000 -50 Descending Atlanta Center
Wed 06:58:04 PM 35.1011 -85.9097 143° Southeast 377 434 25,000  Level Atlanta Center
Wed 06:59:04 PM 35.0064 -85.8292 145° Southeast 400 460 25,000  Level Atlanta Center
Wed 07:00:04 PM 34.9072 -85.7458 145° Southeast 425 489 25,000  Level Atlanta Center
Wed 07:01:04 PM 34.8103 -85.6603 144° Southeast 425 489 25,000  Level Atlanta Center
Wed 07:02:04 PM 34.7156 -85.5728 143° Southeast 425 489 25,000 -850 Level Atlanta Center
Wed 07:03:04 PM 34.6228 -85.4878 143° Southeast 425 489 23,300 -2,050 Descending Atlanta Center
Wed 07:04:04 PM 34.5297 -85.4078 145° Southeast 419 482 20,900 -2,300 Descending Atlanta Center
Wed 07:05:04 PM 34.4408 -85.3358 146° Southeast 414 476 18,700 -2,300 Descending Atlanta Center
Wed 07:06:04 PM 34.3600 -85.2769 149° Southeast 390 449 16,300 -2,200 Descending Atlanta Center
Wed 07:07:04 PM 34.2750 -85.2153 149° Southeast 370 426 14,300 -1,150 Descending Atlanta Center
Wed 07:08:04 PM 34.1942 -85.1439 144° Southeast 354 407 14,000 -150 Descending Atlanta Center
Wed 07:09:04 PM 34.1261 -85.0625 135° Southeast 347 399 14,000  Level Atlanta Center
Wed 07:10:04 PM 34.0642 -84.9867 135° Southeast 324 373 14,000 -550 Level Atlanta Center
Wed 07:11:04 PM 34.0061 -84.9133 134° Southeast 314 361 12,900 -500 Descending Atlanta Center
Wed 07:12:04 PM 33.9522 -84.8453 134° Southeast 288 331 13,000 50 Climbing Atlanta Center
Wed 07:13:04 PM 33.9006 -84.7797 134° Southeast 276 318 13,000 -729 Level Atlanta Center
Wed 07:13:51 PM 33.8667 -84.7333 131° Southeast 241 277 11,700 -1,178 Descending Atlanta TRACON
Wed 07:14:51 PM 33.8167 -84.6667 132° Southeast 211 243 10,900 -550 Descending Atlanta TRACON
Wed 07:15:51 PM 33.7667 -84.6667 180° South 208 239 10,600 -1,300 Descending Atlanta TRACON
Wed 07:16:51 PM 33.7333 -84.7000 220° Southwest 210 242 8,300 -1,368 Descending Atlanta TRACON
Wed 07:17:45 PM 33.7333 -84.7667 270° West 213 245 8,000 -105 Descending Atlanta TRACON
Wed 07:18:45 PM 33.7167 -84.8333 253° West 215 247 8,100 50 Climbing Atlanta TRACON
Wed 07:19:45 PM 33.7167 -84.9000 270° West 210 242 8,100 -550 Level Atlanta TRACON
Wed 07:20:45 PM 33.6833 -84.9333 220° Southwest 209 241 7,000 -1,350 Descending Atlanta TRACON
Wed 07:21:45 PM 33.6500 -84.8833 129° Southeast 191 220 5,400 -905 Descending Atlanta TRACON
Wed 07:22:51 PM 33.6500 -84.8167 90° East 191 220 5,100 -142 Descending Atlanta TRACON
Wed 07:23:52 PM 33.6500 -84.7500 90° East 182 209 5,100 -100 Level Atlanta TRACON
Wed 07:24:51 PM 33.6500 -84.6833 90° East 182 209 4,900 -504 Descending Atlanta TRACON
Wed 07:25:51 PM 33.6500 -84.6333 90° East 181 208 4,100 -857 Descending Atlanta TRACON
Wed 07:26:57 PM 33.6500 -84.5667 90° East 175 201 3,100 -900 Descending Atlanta TRACON
Wed 07:27:51 PM 33.6500 -84.5167 90° East 154 177 2,300 -778 Descending Atlanta TRACON
Wed 07:28:45 PM 33.6500 -84.4667 90° East 145 167 1,700 -667 Descending Atlanta TRACON

Login

Don't have an account? Register now (free) for customized features, flight alerts, and more!